createdAt,value
2018-11-14T00:00:44.609Z,8.29
2018-11-14T00:01:44.532Z,8.30
2018-11-14T00:02:44.478Z,8.30
2018-11-14T00:03:44.424Z,8.27
2018-11-14T00:04:44.375Z,8.26
2018-11-14T00:05:44.343Z,8.38
2018-11-14T00:06:44.264Z,8.31
2018-11-14T00:07:44.214Z,8.41
2018-11-14T00:08:44.160Z,8.27
2018-11-14T00:09:44.228Z,8.33
2018-11-14T00:10:44.090Z,8.31
2018-11-14T00:11:44.002Z,8.31
2018-11-14T00:12:43.952Z,8.30
2018-11-14T00:13:43.903Z,8.30
2018-11-14T00:14:43.845Z,8.33
2018-11-14T00:15:43.810Z,8.38
2018-11-14T00:16:43.734Z,8.31
2018-11-14T00:17:43.680Z,8.27
2018-11-14T00:18:43.629Z,8.31
2018-11-14T00:19:43.576Z,8.30
2018-11-14T00:20:43.547Z,8.24
2018-11-14T00:21:43.512Z,8.30
2018-11-14T00:22:43.423Z,8.23
2018-11-14T00:23:43.365Z,8.29
2018-11-14T00:24:43.323Z,8.23
2018-11-14T00:25:43.261Z,8.36
2018-11-14T00:26:43.289Z,8.33
2018-11-14T00:27:43.209Z,8.26
2018-11-14T00:28:43.100Z,8.30
2018-11-14T00:29:43.050Z,8.26
2018-11-14T00:30:42.991Z,8.24
2018-11-14T00:31:42.973Z,8.23
2018-11-14T00:32:42.892Z,8.26
2018-11-14T00:33:42.879Z,8.20
2018-11-14T00:34:42.802Z,8.24
2018-11-14T00:35:42.793Z,8.23
2018-11-14T00:36:42.704Z,8.20
2018-11-14T00:37:42.622Z,8.12
2018-11-14T00:38:42.574Z,8.09
2018-11-14T00:39:42.519Z,8.08
2018-11-14T00:40:42.464Z,8.06
2018-11-14T00:41:42.436Z,8.09
2018-11-14T00:42:42.596Z,8.12
2018-11-14T00:43:42.311Z,8.06
2018-11-14T00:44:42.255Z,8.01
2018-11-14T00:45:42.199Z,8.11
2018-11-14T00:46:42.170Z,8.08
2018-11-14T00:47:42.094Z,8.06
2018-11-14T00:48:42.037Z,8.06
2018-11-14T00:49:41.990Z,8.06
2018-11-14T00:50:41.932Z,7.97
2018-11-14T00:51:41.905Z,8.02
2018-11-14T00:52:41.826Z,7.94
2018-11-14T00:53:41.784Z,7.91
2018-11-14T00:54:41.743Z,7.91
2018-11-14T00:55:41.670Z,7.86
2018-11-14T00:56:41.646Z,7.86
2018-11-14T00:57:41.561Z,7.79
2018-11-14T00:58:41.513Z,7.80
2018-11-14T00:59:41.461Z,7.87
2018-11-14T01:00:41.407Z,7.78
2018-11-14T01:01:41.464Z,7.80
2018-11-14T01:02:41.301Z,7.78
2018-11-14T01:03:41.242Z,7.78
2018-11-14T01:04:41.189Z,7.78
2018-11-14T01:05:41.139Z,7.76
2018-11-14T01:06:41.109Z,7.72
2018-11-14T01:07:41.038Z,7.80
2018-11-14T01:08:40.977Z,7.70
2018-11-14T01:09:40.927Z,7.75
2018-11-14T01:10:40.875Z,7.73
2018-11-14T01:11:40.846Z,7.80
2018-11-14T01:12:40.768Z,7.72
2018-11-14T01:13:40.715Z,7.73
2018-11-14T01:14:40.658Z,7.72
2018-11-14T01:15:40.610Z,7.78
2018-11-14T01:16:40.584Z,7.70
2018-11-14T01:17:40.497Z,7.72
2018-11-14T01:18:40.440Z,7.70
2018-11-14T01:19:40.403Z,7.75
2018-11-14T01:20:40.339Z,7.72
2018-11-14T01:21:40.350Z,7.78
2018-11-14T01:22:40.235Z,7.79
2018-11-14T01:23:40.181Z,7.78
2018-11-14T01:24:40.127Z,7.78
2018-11-14T01:25:40.075Z,7.72
2018-11-14T01:26:40.045Z,7.83
2018-11-14T01:27:39.967Z,7.76
2018-11-14T01:28:39.915Z,7.75
2018-11-14T01:29:39.861Z,7.79
2018-11-14T01:30:39.808Z,7.79
2018-11-14T01:31:39.776Z,7.83
2018-11-14T01:32:39.717Z,7.70
2018-11-14T01:33:39.649Z,7.69
2018-11-14T01:34:39.598Z,7.68
2018-11-14T01:35:39.566Z,7.73
2018-11-14T01:36:39.519Z,7.73
2018-11-14T01:37:39.443Z,7.68
2018-11-14T01:38:39.378Z,7.72
2018-11-14T01:39:39.327Z,7.73
2018-11-14T01:40:39.292Z,7.68
2018-11-14T01:41:39.264Z,7.73
2018-11-14T01:42:39.173Z,7.72
2018-11-14T01:43:39.120Z,7.72
2018-11-14T01:44:39.072Z,7.73
2018-11-14T01:45:39.007Z,7.66
2018-11-14T01:46:38.962Z,7.73
2018-11-14T01:47:38.928Z,7.78
2018-11-14T01:48:38.849Z,7.72
2018-11-14T01:49:38.794Z,7.60
2018-11-14T01:50:38.742Z,7.60
2018-11-14T01:51:38.690Z,7.64
2018-11-14T01:52:38.668Z,7.60
2018-11-14T01:53:38.582Z,7.56
2018-11-14T01:54:38.529Z,7.52
2018-11-14T01:55:38.478Z,7.60
2018-11-14T01:56:38.423Z,7.57
2018-11-14T01:57:38.401Z,7.54
2018-11-14T01:58:38.318Z,7.54
2018-11-14T01:59:38.264Z,7.54
2018-11-14T02:00:38.213Z,7.54
2018-11-14T02:01:38.153Z,7.54
2018-11-14T02:02:38.142Z,7.54
2018-11-14T02:03:38.046Z,7.56
2018-11-14T02:04:37.998Z,7.62
2018-11-14T02:05:37.947Z,7.57
2018-11-14T02:06:37.888Z,7.59
2018-11-14T02:07:37.838Z,7.56
2018-11-14T02:08:37.805Z,7.59
2018-11-14T02:09:37.735Z,7.60
2018-11-14T02:10:37.676Z,7.76
2018-11-14T02:11:37.622Z,7.62
2018-11-14T02:12:37.569Z,7.73
2018-11-14T02:13:37.542Z,7.72
2018-11-14T02:14:37.466Z,7.69
2018-11-14T02:15:37.410Z,7.70
2018-11-14T02:16:37.355Z,7.73
2018-11-14T02:17:37.309Z,7.83
2018-11-14T02:18:37.279Z,7.76
2018-11-14T02:19:37.198Z,7.76
2018-11-14T02:20:37.146Z,7.79
2018-11-14T02:21:37.090Z,7.79
2018-11-14T02:22:37.038Z,7.87
2018-11-14T02:23:37.006Z,7.88
2018-11-14T02:24:36.935Z,7.91
2018-11-14T02:25:36.877Z,7.88
2018-11-14T02:26:36.826Z,7.96
2018-11-14T02:27:36.775Z,7.94
2018-11-14T02:28:36.738Z,7.97
2018-11-14T02:29:36.665Z,7.98
2018-11-14T02:30:36.610Z,8.01
2018-11-14T02:31:36.557Z,8.01
2018-11-14T02:32:36.506Z,8.06
2018-11-14T02:33:36.477Z,8.05
2018-11-14T02:34:36.405Z,8.08
2018-11-14T02:35:36.347Z,8.09
2018-11-14T02:36:36.295Z,8.11
2018-11-14T02:37:36.243Z,8.04
2018-11-14T02:38:36.218Z,8.09
2018-11-14T02:39:36.137Z,8.09
2018-11-14T02:40:36.094Z,8.12
2018-11-14T02:41:36.031Z,8.08
2018-11-14T02:42:35.974Z,8.09
2018-11-14T02:43:35.945Z,8.08
2018-11-14T02:44:35.870Z,8.09
2018-11-14T02:45:35.821Z,8.06
2018-11-14T02:46:35.760Z,8.11
2018-11-14T02:47:35.712Z,8.11
2018-11-14T02:48:35.684Z,8.09
2018-11-14T02:49:35.606Z,8.08
2018-11-14T02:50:35.550Z,8.20
2018-11-14T02:51:35.503Z,8.21
2018-11-14T02:52:35.447Z,8.16
2018-11-14T02:53:35.417Z,8.18
2018-11-14T02:54:35.349Z,8.18
2018-11-14T02:55:35.285Z,8.21
2018-11-14T02:56:35.235Z,8.23
2018-11-14T02:57:35.184Z,8.23
2018-11-14T02:58:35.152Z,8.29
2018-11-14T02:59:35.078Z,8.27
2018-11-14T03:00:35.032Z,8.24
2018-11-14T03:01:34.975Z,8.23
2018-11-14T03:02:34.913Z,8.26
2018-11-14T03:03:34.887Z,8.31
2018-11-14T03:04:34.811Z,8.29
2018-11-14T03:05:34.759Z,8.31
2018-11-14T03:06:34.704Z,8.24
2018-11-14T03:07:34.650Z,8.29
2018-11-14T03:08:34.627Z,8.33
2018-11-14T03:09:34.559Z,8.30
2018-11-14T03:10:34.492Z,8.29
2018-11-14T03:11:34.445Z,8.33
2018-11-14T03:12:34.428Z,8.36
2018-11-14T03:13:34.353Z,8.29
2018-11-14T03:14:34.296Z,8.30
2018-11-14T03:15:34.228Z,8.38
2018-11-14T03:16:34.175Z,8.42
2018-11-14T03:17:34.121Z,8.34
2018-11-14T03:18:34.101Z,8.31
2018-11-14T03:19:34.022Z,8.39
2018-11-14T03:20:33.969Z,8.30
2018-11-14T03:21:33.917Z,8.31
2018-11-14T03:22:33.857Z,8.33
2018-11-14T03:23:33.845Z,8.33
2018-11-14T03:24:33.753Z,8.31
2018-11-14T03:25:33.700Z,8.34
2018-11-14T03:26:33.654Z,8.30
2018-11-14T03:27:33.592Z,8.39
2018-11-14T03:28:33.539Z,8.34
2018-11-14T03:29:33.517Z,8.36
2018-11-14T03:30:33.439Z,8.45
2018-11-14T03:31:33.381Z,8.42
2018-11-14T03:32:33.329Z,8.44
2018-11-14T03:33:33.281Z,8.42
2018-11-14T03:34:33.253Z,8.31
2018-11-14T03:35:33.175Z,8.42
2018-11-14T03:36:33.120Z,8.39
2018-11-14T03:37:33.069Z,8.39
2018-11-14T03:38:33.009Z,8.44
2018-11-14T03:39:32.990Z,8.42
2018-11-14T03:40:32.912Z,8.45
2018-11-14T03:41:32.859Z,8.44
2018-11-14T03:42:32.805Z,8.49
2018-11-14T03:43:32.749Z,8.42
2018-11-14T03:44:32.723Z,8.41
2018-11-14T03:45:32.654Z,8.55
2018-11-14T03:46:32.589Z,8.48
2018-11-14T03:47:32.541Z,8.51
2018-11-14T03:48:32.486Z,8.48
2018-11-14T03:49:32.458Z,8.54
2018-11-14T03:50:32.383Z,8.51
2018-11-14T03:51:32.333Z,8.60
2018-11-14T03:52:32.278Z,8.54
2018-11-14T03:53:32.228Z,8.59
2018-11-14T03:54:32.190Z,8.60
2018-11-14T03:55:32.119Z,8.57
2018-11-14T03:56:32.065Z,8.59
2018-11-14T03:57:32.014Z,8.54
2018-11-14T03:58:32.049Z,8.59
2018-11-14T03:59:31.931Z,8.63
2018-11-14T04:00:31.860Z,8.64
2018-11-14T04:01:31.810Z,8.57
2018-11-14T04:02:31.750Z,8.60
2018-11-14T04:03:31.697Z,8.70
2018-11-14T04:04:31.671Z,8.66
2018-11-14T04:05:31.677Z,8.66
2018-11-14T04:06:31.539Z,8.66
2018-11-14T04:07:31.489Z,8.66
2018-11-14T04:08:31.433Z,8.69
2018-11-14T04:09:31.484Z,8.62
2018-11-14T04:10:31.327Z,8.66
2018-11-14T04:11:31.274Z,8.64
2018-11-14T04:12:31.237Z,8.67
2018-11-14T04:13:31.172Z,8.64
2018-11-14T04:14:31.189Z,8.60
2018-11-14T04:15:31.078Z,8.57
2018-11-14T04:16:31.014Z,8.55
2018-11-14T04:17:30.960Z,8.57
2018-11-14T04:18:30.908Z,8.51
2018-11-14T04:19:30.885Z,8.48
2018-11-14T04:20:30.802Z,8.47
2018-11-14T04:21:30.759Z,8.45
2018-11-14T04:22:30.700Z,8.39
2018-11-14T04:23:30.642Z,8.47
2018-11-14T04:24:30.618Z,8.44
2018-11-14T04:25:30.541Z,8.38
2018-11-14T04:26:30.500Z,8.31
2018-11-14T04:27:30.440Z,8.33
2018-11-14T04:28:30.385Z,8.33
2018-11-14T04:29:30.356Z,8.29
2018-11-14T04:30:30.277Z,8.29
2018-11-14T04:31:30.226Z,8.30
2018-11-14T04:32:30.167Z,8.24
2018-11-14T04:33:30.120Z,8.26
2018-11-14T04:34:30.090Z,8.30
2018-11-14T04:35:30.015Z,8.30
2018-11-14T04:36:29.960Z,8.33
2018-11-14T04:37:29.923Z,8.24
2018-11-14T04:38:29.855Z,8.31
2018-11-14T04:39:29.833Z,8.30
2018-11-14T04:40:29.749Z,8.21
2018-11-14T04:41:29.701Z,8.20
2018-11-14T04:42:29.647Z,8.23
2018-11-14T04:43:29.587Z,8.21
2018-11-14T04:44:29.539Z,8.21
2018-11-14T04:45:29.508Z,8.11
2018-11-14T04:46:29.432Z,8.12
2018-11-14T04:47:29.377Z,8.15
2018-11-14T04:48:29.325Z,8.05
2018-11-14T04:49:29.272Z,8.12
2018-11-14T04:50:29.247Z,8.15
2018-11-14T04:51:29.166Z,8.13
2018-11-14T04:52:29.115Z,8.09
2018-11-14T04:53:29.058Z,8.08
2018-11-14T04:54:29.008Z,8.09
2018-11-14T04:55:28.975Z,8.09
2018-11-14T04:56:28.901Z,8.09
2018-11-14T04:57:28.854Z,8.04
2018-11-14T04:58:28.791Z,8.12
2018-11-14T04:59:28.738Z,8.09
2018-11-14T05:00:28.718Z,8.09
2018-11-14T05:01:28.639Z,8.02
2018-11-14T05:02:28.616Z,8.05
2018-11-14T05:03:28.530Z,7.96
2018-11-14T05:04:28.486Z,8.01
2018-11-14T05:05:28.444Z,7.96
2018-11-14T05:06:28.370Z,7.91
2018-11-14T05:07:28.317Z,7.88
2018-11-14T05:08:28.262Z,7.87
2018-11-14T05:09:28.214Z,7.84
2018-11-14T05:10:28.183Z,7.83
2018-11-14T05:11:28.101Z,7.78
2018-11-14T05:12:28.055Z,7.83
2018-11-14T05:13:28.001Z,7.76
2018-11-14T05:14:27.961Z,7.84
2018-11-14T05:15:27.925Z,7.78
2018-11-14T05:16:27.841Z,7.70
2018-11-14T05:17:27.785Z,7.76
2018-11-14T05:18:27.733Z,7.70
2018-11-14T05:19:27.682Z,7.70
2018-11-14T05:20:27.670Z,7.70
2018-11-14T05:21:27.574Z,7.66
2018-11-14T05:22:27.522Z,7.64
2018-11-14T05:23:27.470Z,7.57
2018-11-14T05:24:27.469Z,7.64
2018-11-14T05:25:27.383Z,7.60
2018-11-14T05:26:27.308Z,7.57
2018-11-14T05:27:27.255Z,7.57
2018-11-14T05:28:27.204Z,7.47
2018-11-14T05:29:27.150Z,7.60
2018-11-14T05:30:27.121Z,7.47
2018-11-14T05:31:27.040Z,7.50
2018-11-14T05:32:26.986Z,7.56
2018-11-14T05:33:26.937Z,7.41
2018-11-14T05:34:26.878Z,7.47
2018-11-14T05:35:26.866Z,7.42
2018-11-14T05:36:26.783Z,7.42
2018-11-14T05:37:26.724Z,7.44
2018-11-14T05:38:26.667Z,7.42
2018-11-14T05:39:26.661Z,7.42
2018-11-14T05:40:26.558Z,7.35
2018-11-14T05:41:26.536Z,7.34
2018-11-14T05:42:26.457Z,7.32
2018-11-14T05:43:26.400Z,7.28
2018-11-14T05:44:26.348Z,7.18
2018-11-14T05:45:26.360Z,7.29
2018-11-14T05:46:26.269Z,7.29
2018-11-14T05:47:26.187Z,7.21
2018-11-14T05:48:26.133Z,7.23
2018-11-14T05:49:26.083Z,7.21
2018-11-14T05:50:26.030Z,7.17
2018-11-14T05:51:26.010Z,7.18
2018-11-14T05:52:25.916Z,7.08
2018-11-14T05:53:25.870Z,7.18
2018-11-14T05:54:25.813Z,7.10
2018-11-14T05:55:25.757Z,7.13
2018-11-14T05:56:25.731Z,7.14
2018-11-14T05:57:25.652Z,7.23
2018-11-14T05:58:25.600Z,7.13
2018-11-14T05:59:25.553Z,7.13
2018-11-14T06:00:25.487Z,7.23
2018-11-14T06:01:25.467Z,7.16
2018-11-14T06:02:25.383Z,7.11
2018-11-14T06:03:25.333Z,7.28
2018-11-14T06:04:25.281Z,7.23
2018-11-14T06:05:25.224Z,7.23
2018-11-14T06:06:25.190Z,7.29
2018-11-14T06:07:25.172Z,7.25
2018-11-14T06:08:25.062Z,7.26
2018-11-14T06:09:25.010Z,7.29
2018-11-14T06:10:24.955Z,7.34
2018-11-14T06:11:24.924Z,7.29
2018-11-14T06:12:24.848Z,7.29
2018-11-14T06:13:24.800Z,7.31
2018-11-14T06:14:24.740Z,7.26
2018-11-14T06:15:24.810Z,7.28
2018-11-14T06:16:24.653Z,7.31
2018-11-14T06:17:24.581Z,7.35
2018-11-14T06:18:24.525Z,7.31
2018-11-14T06:19:24.474Z,7.31
2018-11-14T06:20:24.420Z,7.46
2018-11-14T06:21:24.393Z,7.46
2018-11-14T06:22:24.315Z,7.44
2018-11-14T06:23:24.314Z,7.36
2018-11-14T06:24:24.204Z,7.44
2018-11-14T06:25:24.155Z,7.39
2018-11-14T06:26:24.140Z,7.46
2018-11-14T06:27:24.047Z,7.38
2018-11-14T06:28:23.993Z,7.42
2018-11-14T06:29:23.938Z,7.49
2018-11-14T06:30:23.888Z,7.46
2018-11-14T06:31:23.830Z,7.39
2018-11-14T06:32:23.803Z,7.42
2018-11-14T06:33:23.723Z,7.44
2018-11-14T06:34:23.671Z,7.44
2018-11-14T06:35:23.619Z,7.38
2018-11-14T06:36:23.568Z,7.38
2018-11-14T06:37:23.539Z,7.44
2018-11-14T06:38:23.454Z,7.41
2018-11-14T06:39:23.413Z,7.26
2018-11-14T06:40:23.350Z,7.28
2018-11-14T06:41:23.296Z,7.28
2018-11-14T06:42:23.272Z,7.29
2018-11-14T06:43:23.187Z,7.25
2018-11-14T06:44:23.136Z,7.25
2018-11-14T06:45:23.088Z,7.25
2018-11-14T06:46:23.028Z,7.21
2018-11-14T06:47:23.001Z,7.18
2018-11-14T06:48:22.920Z,7.28
2018-11-14T06:49:22.868Z,7.23
2018-11-14T06:50:22.816Z,7.28
2018-11-14T06:51:22.762Z,7.28
2018-11-14T06:52:22.731Z,7.29
2018-11-14T06:53:22.672Z,7.31
2018-11-14T06:54:22.602Z,7.31
2018-11-14T06:55:30.430Z,7.26
2018-11-14T06:56:22.499Z,7.28
2018-11-14T06:57:22.476Z,7.32
2018-11-14T06:58:22.386Z,7.20
2018-11-14T06:59:22.362Z,7.29
2018-11-14T07:00:22.293Z,7.25
2018-11-14T07:01:22.228Z,7.25
2018-11-14T07:02:27.318Z,7.20
2018-11-14T07:03:22.211Z,7.21
2018-11-14T07:04:22.063Z,7.18
2018-11-14T07:05:22.033Z,7.25
2018-11-14T07:06:21.960Z,7.18
2018-11-14T07:07:21.916Z,7.23
2018-11-14T07:08:21.873Z,7.23
2018-11-14T07:09:21.792Z,7.25
2018-11-14T07:10:21.747Z,7.18
2018-11-14T07:11:21.700Z,7.21
2018-11-14T07:12:21.636Z,7.29
2018-11-14T07:13:21.609Z,7.32
2018-11-14T07:14:21.532Z,7.32
2018-11-14T07:15:21.483Z,7.35
2018-11-14T07:16:21.422Z,7.28
2018-11-14T07:17:21.370Z,7.29
2018-11-14T07:18:21.340Z,7.32
2018-11-14T07:19:21.260Z,7.26
2018-11-14T07:20:21.212Z,7.38
2018-11-14T07:21:21.157Z,7.42
2018-11-14T07:22:21.103Z,7.39
2018-11-14T07:23:21.076Z,7.42
2018-11-14T07:24:20.998Z,7.42
2018-11-14T07:25:20.939Z,7.44
2018-11-14T07:26:20.895Z,7.44
2018-11-14T07:27:20.832Z,7.42
2018-11-14T07:28:20.807Z,7.38
2018-11-14T07:29:20.727Z,7.44
2018-11-14T07:30:20.670Z,7.46
2018-11-14T07:31:20.619Z,7.46
2018-11-14T07:32:20.645Z,7.50
2018-11-14T07:33:20.538Z,7.47
2018-11-14T07:34:20.457Z,7.50
2018-11-14T07:35:20.404Z,7.57
2018-11-14T07:36:20.353Z,7.47
2018-11-14T07:37:20.310Z,7.57
2018-11-14T07:38:20.269Z,7.54
2018-11-14T07:39:20.192Z,7.60
2018-11-14T07:40:20.137Z,7.59
2018-11-14T07:41:20.087Z,7.60
2018-11-14T07:42:20.028Z,7.57
2018-11-14T07:43:20.005Z,7.66
2018-11-14T07:44:19.931Z,7.73
2018-11-14T07:45:19.873Z,7.70
2018-11-14T07:46:19.815Z,7.70
2018-11-14T07:47:19.761Z,7.78
2018-11-14T07:48:19.735Z,7.70
2018-11-14T07:49:19.660Z,7.78
2018-11-14T07:50:19.605Z,7.76
2018-11-14T07:51:19.547Z,7.76
2018-11-14T07:52:19.497Z,7.75
2018-11-14T07:53:19.487Z,7.72
2018-11-14T07:54:19.391Z,7.76
2018-11-14T07:55:19.334Z,7.90
2018-11-14T07:56:19.281Z,7.78
2018-11-14T07:57:19.232Z,7.93
2018-11-14T07:58:19.213Z,7.88
2018-11-14T07:59:19.128Z,7.88
2018-11-14T08:00:19.075Z,7.96
2018-11-14T08:01:19.017Z,7.94
2018-11-14T08:02:19.033Z,7.96
2018-11-14T08:03:18.915Z,8.04
2018-11-14T08:04:18.888Z,8.06
2018-11-14T08:05:18.808Z,8.09
2018-11-14T08:06:18.759Z,8.12
2018-11-14T08:07:18.704Z,8.02
2018-11-14T08:08:18.703Z,8.12
2018-11-14T08:09:18.617Z,8.11
2018-11-14T08:10:18.553Z,8.08
2018-11-14T08:11:18.489Z,8.13
2018-11-14T08:12:18.434Z,8.18
2018-11-14T08:13:18.387Z,8.20
2018-11-14T08:14:18.353Z,8.27
2018-11-14T08:15:18.277Z,8.31
2018-11-14T08:16:18.250Z,8.23
2018-11-14T08:17:18.176Z,8.31
2018-11-14T08:18:18.118Z,8.31
2018-11-14T08:19:18.092Z,8.38
2018-11-14T08:20:18.015Z,8.30
2018-11-14T08:21:17.963Z,8.33
2018-11-14T08:22:17.910Z,8.42
2018-11-14T08:23:17.854Z,8.44
2018-11-14T08:24:17.831Z,8.45
2018-11-14T08:25:17.756Z,8.49
2018-11-14T08:26:17.693Z,8.36
2018-11-14T08:27:17.645Z,8.54
2018-11-14T08:28:17.591Z,8.59
2018-11-14T08:29:17.565Z,8.57
2018-11-14T08:30:17.483Z,8.62
2018-11-14T08:31:17.433Z,8.72
2018-11-14T08:32:17.376Z,8.69
2018-11-14T08:33:17.329Z,8.62
2018-11-14T08:34:17.302Z,8.69
2018-11-14T08:35:17.224Z,8.77
2018-11-14T08:36:17.166Z,8.77
2018-11-14T08:37:17.116Z,8.77
2018-11-14T08:38:17.061Z,8.85
2018-11-14T08:39:17.138Z,8.84
2018-11-14T08:40:16.961Z,8.93
2018-11-14T08:41:16.907Z,8.96
2018-11-14T08:42:16.848Z,9.00
2018-11-14T08:43:16.796Z,8.98
2018-11-14T08:44:16.780Z,9.02
2018-11-14T08:45:16.697Z,9.05
2018-11-14T08:46:16.642Z,9.10
2018-11-14T08:47:16.592Z,9.08
2018-11-14T08:48:16.539Z,9.14
2018-11-14T08:49:16.512Z,9.18
2018-11-14T08:50:16.489Z,9.28
2018-11-14T08:51:16.382Z,9.26
2018-11-14T08:52:16.329Z,9.33
2018-11-14T08:53:16.332Z,9.36
2018-11-14T08:54:16.251Z,9.43
2018-11-14T08:55:16.171Z,9.47
2018-11-14T08:56:16.116Z,9.49
2018-11-14T08:57:16.068Z,9.46
2018-11-14T08:58:16.022Z,9.44
2018-11-14T08:59:16.003Z,9.43
2018-11-14T09:00:15.909Z,9.46
2018-11-14T09:01:15.858Z,9.42
2018-11-14T09:02:15.811Z,9.47
2018-11-14T09:03:15.758Z,9.51
2018-11-14T09:04:15.700Z,9.52
2018-11-14T09:05:15.679Z,9.51
2018-11-14T09:06:15.642Z,9.52
2018-11-14T09:07:15.552Z,9.57
2018-11-14T09:08:15.496Z,9.58
2018-11-14T09:09:15.452Z,9.55
2018-11-14T09:10:15.416Z,9.49
2018-11-14T09:11:15.429Z,9.49
2018-11-14T09:12:15.330Z,9.54
2018-11-14T09:13:15.250Z,9.54
2018-11-14T09:14:15.224Z,9.65
2018-11-14T09:15:15.162Z,9.62
2018-11-14T09:16:15.080Z,9.61
2018-11-14T09:17:15.032Z,9.67
2018-11-14T09:18:15.025Z,9.61
2018-11-14T09:19:14.921Z,9.67
2018-11-14T09:20:14.907Z,9.64
2018-11-14T09:21:14.819Z,9.72
2018-11-14T09:22:14.770Z,9.70
2018-11-14T09:23:14.715Z,9.77
2018-11-14T09:24:14.676Z,9.82
2018-11-14T09:25:14.642Z,9.76
2018-11-14T09:26:14.561Z,9.77
2018-11-14T09:27:14.511Z,9.70
2018-11-14T09:28:14.466Z,9.76
2018-11-14T09:29:14.403Z,9.79
2018-11-14T09:30:14.379Z,9.69
2018-11-14T09:31:14.299Z,9.77
2018-11-14T09:32:14.254Z,9.77
2018-11-14T09:33:14.214Z,9.76
2018-11-14T09:34:14.147Z,9.83
2018-11-14T09:35:14.120Z,9.94
2018-11-14T09:36:14.044Z,9.90
2018-11-14T09:37:13.992Z,9.94
2018-11-14T09:38:13.945Z,9.94
2018-11-14T09:39:13.886Z,9.93
2018-11-14T09:40:13.863Z,9.90
2018-11-14T09:41:13.798Z,9.95
2018-11-14T09:42:13.732Z,10.06
2018-11-14T09:43:13.681Z,10.01
2018-11-14T09:44:13.626Z,9.98
2018-11-14T09:45:13.602Z,10.01
2018-11-14T09:46:13.524Z,10.12
2018-11-14T09:47:13.473Z,10.08
2018-11-14T09:48:13.426Z,10.13
2018-11-14T09:49:13.417Z,10.12
2018-11-14T09:50:13.368Z,10.16
2018-11-14T09:51:13.266Z,10.19
2018-11-14T09:52:13.212Z,10.10
2018-11-14T09:53:13.235Z,10.16
2018-11-14T09:54:13.112Z,10.20
2018-11-14T09:55:13.057Z,10.20
2018-11-14T09:56:13.033Z,10.26
2018-11-14T09:57:12.957Z,10.19
2018-11-14T09:58:12.903Z,10.34
2018-11-14T09:59:12.858Z,10.43
2018-11-14T10:00:12.813Z,10.41
2018-11-14T10:01:12.772Z,10.38
2018-11-14T10:02:12.698Z,10.41
2018-11-14T10:03:12.643Z,10.52
2018-11-14T10:04:12.594Z,10.52
2018-11-14T10:05:12.541Z,10.53
2018-11-14T10:06:12.530Z,10.53
2018-11-14T10:07:12.443Z,10.46
2018-11-14T10:08:12.390Z,10.54
2018-11-14T10:09:12.343Z,10.60
2018-11-14T10:10:12.284Z,10.59
2018-11-14T10:11:12.265Z,10.48
2018-11-14T10:12:12.184Z,10.54
2018-11-14T10:13:12.132Z,10.57
2018-11-14T10:14:12.081Z,10.60
2018-11-14T10:15:12.034Z,10.71
2018-11-14T10:16:12.006Z,10.74
2018-11-14T10:17:11.925Z,10.75
2018-11-14T10:18:11.870Z,10.70
2018-11-14T10:19:11.824Z,10.75
2018-11-14T10:20:11.775Z,10.64
2018-11-14T10:21:11.773Z,10.64
2018-11-14T10:22:11.671Z,10.67
2018-11-14T10:23:11.616Z,10.68
2018-11-14T10:24:11.565Z,10.78
2018-11-14T10:25:11.511Z,10.78
2018-11-14T10:26:11.489Z,10.74
2018-11-14T10:27:11.409Z,10.75
2018-11-14T10:28:11.363Z,10.79
2018-11-14T10:29:11.315Z,10.79
2018-11-14T10:30:11.262Z,10.90
2018-11-14T10:31:11.232Z,10.89
2018-11-14T10:32:11.156Z,10.97
2018-11-14T10:33:11.107Z,10.96
2018-11-14T10:34:11.057Z,10.93
2018-11-14T10:35:11.001Z,10.93
2018-11-14T10:36:10.975Z,10.96
2018-11-14T10:37:10.899Z,11.04
2018-11-14T10:38:10.854Z,10.97
2018-11-14T10:39:10.797Z,11.03
2018-11-14T10:40:10.744Z,11.04
2018-11-14T10:41:10.721Z,11.07
2018-11-14T10:42:10.643Z,11.07
2018-11-14T10:43:10.649Z,11.11
2018-11-14T10:44:10.537Z,11.12
2018-11-14T10:45:10.491Z,11.17
2018-11-14T10:46:10.460Z,11.10
2018-11-14T10:47:10.385Z,11.20
2018-11-14T10:48:10.336Z,11.12
2018-11-14T10:49:10.294Z,11.14
2018-11-14T10:50:10.233Z,11.12
2018-11-14T10:51:10.305Z,11.20
2018-11-14T10:52:10.128Z,11.19
2018-11-14T10:53:10.076Z,11.14
2018-11-14T10:54:10.026Z,11.15
2018-11-14T10:55:09.979Z,11.25
2018-11-14T10:56:09.924Z,11.22
2018-11-14T10:57:09.903Z,11.25
2018-11-14T10:58:09.881Z,11.28
2018-11-14T10:59:09.777Z,11.22
2018-11-14T11:00:09.727Z,11.25
2018-11-14T11:01:09.677Z,11.25
2018-11-14T11:02:09.647Z,11.35
2018-11-14T11:03:09.571Z,11.37
2018-11-14T11:04:09.521Z,11.30
2018-11-14T11:05:09.466Z,11.33
2018-11-14T11:06:09.419Z,11.46
2018-11-14T11:07:09.391Z,11.40
2018-11-14T11:08:09.469Z,11.43
2018-11-14T11:09:09.267Z,11.50
2018-11-14T11:10:09.209Z,11.50
2018-11-14T11:11:09.162Z,11.47
2018-11-14T11:12:09.135Z,11.63
2018-11-14T11:13:09.061Z,11.62
2018-11-14T11:14:09.008Z,11.66
2018-11-14T11:15:08.961Z,11.62
2018-11-14T11:16:08.906Z,11.61
2018-11-14T11:17:08.885Z,11.65
2018-11-14T11:18:08.803Z,11.61
2018-11-14T11:19:08.757Z,11.59
2018-11-14T11:20:08.704Z,11.76
2018-11-14T11:21:08.657Z,11.68
2018-11-14T11:22:08.679Z,11.79
2018-11-14T11:23:08.574Z,11.76
2018-11-14T11:24:08.503Z,11.83
2018-11-14T11:25:08.449Z,11.83
2018-11-14T11:26:08.399Z,11.95
2018-11-14T11:27:08.379Z,11.95
2018-11-14T11:28:08.300Z,11.86
2018-11-14T11:29:08.261Z,11.90
2018-11-14T11:30:08.195Z,11.95
2018-11-14T11:31:08.147Z,11.99
2018-11-14T11:32:08.106Z,11.96
2018-11-14T11:33:08.071Z,12.10
2018-11-14T11:34:07.992Z,12.10
2018-11-14T11:35:07.944Z,12.06
2018-11-14T11:36:07.893Z,12.10
2018-11-14T11:37:07.838Z,12.05
2018-11-14T11:38:07.829Z,12.07
2018-11-14T11:39:07.738Z,12.03
2018-11-14T11:40:07.684Z,12.07
2018-11-14T11:41:07.640Z,12.07
2018-11-14T11:42:07.583Z,12.06
2018-11-14T11:43:07.564Z,12.10
2018-11-14T11:44:07.490Z,12.20
2018-11-14T11:45:07.432Z,12.17
2018-11-14T11:46:07.385Z,12.22
2018-11-14T11:47:07.335Z,12.14
2018-11-14T11:48:07.306Z,12.18
2018-11-14T11:49:07.234Z,12.25
2018-11-14T11:50:07.184Z,12.28
2018-11-14T11:51:07.250Z,12.36
2018-11-14T11:52:07.079Z,12.45
2018-11-14T11:53:07.055Z,12.38
2018-11-14T11:54:06.977Z,12.36
2018-11-14T11:55:06.923Z,12.36
2018-11-14T11:56:06.877Z,12.46
2018-11-14T11:57:06.825Z,12.39
2018-11-14T11:58:06.796Z,12.42
2018-11-14T11:59:06.725Z,12.35
2018-11-14T12:00:06.711Z,12.46
2018-11-14T12:01:06.630Z,12.39
2018-11-14T12:02:06.581Z,12.43
2018-11-14T12:03:06.543Z,12.53
2018-11-14T12:04:06.465Z,12.39
2018-11-14T12:05:06.422Z,12.54
2018-11-14T12:06:06.489Z,12.60
2018-11-14T12:07:06.317Z,12.63
2018-11-14T12:08:06.293Z,12.61
2018-11-14T12:09:06.220Z,12.64
2018-11-14T12:10:06.165Z,12.63
2018-11-14T12:11:06.115Z,12.61
2018-11-14T12:12:06.065Z,12.61
2018-11-14T12:13:06.113Z,12.57
2018-11-14T12:14:05.976Z,12.58
2018-11-14T12:15:05.913Z,12.58
2018-11-14T12:16:05.866Z,12.53
2018-11-14T12:17:05.817Z,12.58
2018-11-14T12:18:05.768Z,12.57
2018-11-14T12:19:05.740Z,12.65
2018-11-14T12:20:05.656Z,12.63
2018-11-14T12:21:05.611Z,12.60
2018-11-14T12:22:05.559Z,12.60
2018-11-14T12:23:05.509Z,12.60
2018-11-14T12:24:05.483Z,12.65
2018-11-14T12:25:05.416Z,12.58
2018-11-14T12:26:05.357Z,12.54
2018-11-14T12:27:05.355Z,12.58
2018-11-14T12:28:05.253Z,12.65
2018-11-14T12:29:05.236Z,12.63
2018-11-14T12:30:05.251Z,12.63
2018-11-14T12:31:05.221Z,12.61
2018-11-14T12:32:05.055Z,12.63
2018-11-14T12:33:05.003Z,12.61
2018-11-14T12:34:04.977Z,12.63
2018-11-14T12:35:04.997Z,12.63
2018-11-14T12:36:04.859Z,12.68
2018-11-14T12:37:04.801Z,12.68
2018-11-14T12:38:04.747Z,12.65
2018-11-14T12:39:04.724Z,12.64
2018-11-14T12:40:04.650Z,12.76
2018-11-14T12:41:04.602Z,12.75
2018-11-14T12:42:04.550Z,12.73
2018-11-14T12:43:04.496Z,12.71
2018-11-14T12:44:04.473Z,12.79
2018-11-14T12:45:04.419Z,12.69
2018-11-14T12:46:04.352Z,12.78
2018-11-14T12:47:04.294Z,12.72
2018-11-14T12:48:04.250Z,12.73
2018-11-14T12:49:04.223Z,12.73
2018-11-14T12:50:04.144Z,12.78
2018-11-14T12:51:04.094Z,12.82
2018-11-14T12:52:04.048Z,12.76
2018-11-14T12:53:03.995Z,12.72
2018-11-14T12:54:03.967Z,12.94
2018-11-14T12:55:03.898Z,12.93
2018-11-14T12:56:03.843Z,12.80
2018-11-14T12:57:03.790Z,12.93
2018-11-14T12:58:03.742Z,12.79
2018-11-14T12:59:03.714Z,12.76
2018-11-14T13:00:03.702Z,12.80
2018-11-14T13:01:03.592Z,12.72
2018-11-14T13:02:03.541Z,12.78
2018-11-14T13:03:03.488Z,12.78
2018-11-14T13:04:03.464Z,12.79
2018-11-14T13:05:03.390Z,12.78
2018-11-14T13:06:03.333Z,12.75
2018-11-14T13:07:03.288Z,12.72
2018-11-14T13:08:03.238Z,12.75
2018-11-14T13:09:03.221Z,12.73
2018-11-14T13:10:03.134Z,12.71
2018-11-14T13:11:03.093Z,12.69